Time;durP1;ratioP1;P1;durP2;ratioP2;P2;SDS_P1;SDS_P2;PMS_P1;PMS_P2;Temp;Humidity;BMP_temperature;BMP_pressure;BME280_temperature;BME280_humidity;BME280_pressure;Samples;Min_cycle;Max_cycle;Signal;HPM_P1;HPM_P2
2022/04/04 00:00:55;;;;;;;13.50;8.80;;;2.40;99.90;;;;;;5067449;28;20045;-70
2022/04/04 00:03:21;;;;;;;15.93;9.23;;;2.30;99.90;;;;;;5073259;28;20050;-71
2022/04/04 00:05:48;;;;;;;19.92;9.90;;;2.40;99.90;;;;;;5075947;28;20040;-70
2022/04/04 00:08:14;;;;;;;15.38;9.98;;;2.30;99.90;;;;;;5077264;28;20394;-71
2022/04/04 00:10:40;;;;;;;17.35;10.30;;;2.40;99.90;;;;;;5068473;28;20052;-71
2022/04/04 00:13:06;;;;;;;15.98;11.70;;;2.40;99.90;;;;;;5067779;28;20418;-70
2022/04/04 00:15:32;;;;;;;18.75;12.30;;;2.40;99.90;;;;;;5067206;28;20045;-71
2022/04/04 00:18:05;;;;;;;17.52;12.20;;;2.40;99.90;;;;;;5049482;28;20140;-71
2022/04/04 00:20:31;;;;;;;21.33;12.93;;;2.40;99.90;;;;;;5066928;28;20091;-70
2022/04/04 00:22:57;;;;;;;22.75;14.50;;;2.30;99.90;;;;;;5067136;28;20064;-70
2022/04/04 00:25:23;;;;;;;20.98;12.43;;;2.30;99.90;;;;;;5075782;28;20044;-71
2022/04/04 00:27:50;;;;;;;21.13;13.27;;;2.30;99.90;;;;;;5083825;28;20479;-71
2022/04/04 00:30:16;;;;;;;20.87;13.07;;;2.30;99.90;;;;;;5052128;28;20048;-71
2022/04/04 00:32:43;;;;;;;19.67;11.10;;;2.30;99.90;;;;;;5058457;28;20279;-71
2022/04/04 00:35:09;;;;;;;16.45;11.70;;;2.40;99.90;;;;;;5083126;28;20052;-70
2022/04/04 00:37:39;;;;;;;16.38;11.10;;;2.40;99.90;;;;;;5075597;28;20040;-71
2022/04/04 00:40:08;;;;;;;14.00;10.25;;;2.40;99.90;;;;;;5064740;28;20051;-71
2022/04/04 00:42:34;;;;;;;16.50;11.95;;;2.40;99.90;;;;;;5066926;28;20393;-70
2022/04/04 00:45:00;;;;;;;28.13;12.23;;;2.40;99.90;;;;;;5058154;28;20060;-71
2022/04/04 00:47:26;;;;;;;19.10;12.10;;;2.40;99.90;;;;;;5066970;28;20401;-71
2022/04/04 00:49:52;;;;;;;22.42;12.77;;;2.40;99.90;;;;;;5066848;28;20040;-71
2022/04/04 00:52:18;;;;;;;20.30;12.98;;;2.40;99.90;;;;;;5070016;28;20047;-71
2022/04/04 00:54:45;;;;;;;21.63;11.65;;;2.40;99.90;;;;;;5072139;28;20097;-71
2022/04/04 00:57:11;;;;;;;17.00;11.38;;;2.50;99.90;;;;;;5075532;28;20390;-71
2022/04/04 00:59:38;;;;;;;14.60;10.27;;;2.40;99.90;;;;;;5075927;28;20059;-71
2022/04/04 01:02:06;;;;;;;20.33;10.85;;;2.40;99.90;;;;;;5075452;28;20036;-70
2022/04/04 01:04:32;;;;;;;16.93;10.27;;;2.50;99.90;;;;;;5065820;28;20040;-70
2022/04/04 01:07:05;;;;;;;16.38;11.63;;;2.50;99.90;;;;;;5074842;28;20646;-70
2022/04/04 01:09:31;;;;;;;16.75;10.68;;;2.50;99.90;;;;;;5055054;28;20047;-71
2022/04/04 01:12:03;;;;;;;24.38;12.45;;;2.50;99.90;;;;;;5075288;28;20103;-70
2022/04/04 01:14:29;;;;;;;18.25;11.23;;;2.50;99.90;;;;;;5071833;28;20053;-71
2022/04/04 01:16:55;;;;;;;20.05;12.38;;;2.50;99.90;;;;;;5086698;28;20807;-71
2022/04/04 01:19:22;;;;;;;19.48;11.80;;;2.50;99.90;;;;;;5083760;28;20036;-71
2022/04/04 01:21:48;;;;;;;14.93;11.05;;;2.50;99.90;;;;;;5066607;28;20048;-70
2022/04/04 01:24:17;;;;;;;19.13;12.20;;;2.60;99.90;;;;;;5075245;28;20392;-70
2022/04/04 01:26:51;;;;;;;17.83;10.75;;;2.60;99.90;;;;;;5074691;28;20052;-71
2022/04/04 01:29:18;;;;;;;17.60;13.00;;;2.60;99.90;;;;;;5069139;28;20758;-71
2022/04/04 01:31:44;;;;;;;18.23;13.05;;;2.60;99.90;;;;;;5070613;28;20577;-71
2022/04/04 01:34:10;;;;;;;21.10;12.93;;;2.60;99.90;;;;;;5070345;28;20116;-70
2022/04/04 01:36:36;;;;;;;23.35;13.75;;;2.70;99.90;;;;;;5070081;28;20054;-70
2022/04/04 01:39:02;;;;;;;22.63;13.23;;;2.70;99.90;;;;;;5070588;28;20513;-70
2022/04/04 01:41:28;;;;;;;23.02;14.32;;;2.70;99.90;;;;;;5090898;28;20047;-70
2022/04/04 01:43:55;;;;;;;29.70;16.17;;;2.70;99.90;;;;;;5085308;28;20429;-71
2022/04/04 01:46:29;;;;;;;21.13;15.77;;;2.70;99.90;;;;;;5068982;28;20048;-70
2022/04/04 01:48:58;;;;;;;21.35;14.52;;;2.80;99.90;;;;;;5070435;28;20107;-70
2022/04/04 01:51:24;;;;;;;;;;;2.80;99.90;;;;;;5070310;28;20048;-70
2022/04/04 01:53:49;;;;;;;28.52;17.20;;;2.80;99.90;;;;;;5069677;28;20296;-70
2022/04/04 01:56:15;;;;;;;28.33;19.63;;;2.80;99.90;;;;;;5069578;28;20072;-70
2022/04/04 01:58:41;;;;;;;28.92;18.58;;;2.80;99.90;;;;;;5067941;28;20048;-70
2022/04/04 02:01:17;;;;;;;29.52;20.65;;;2.80;99.90;;;;;;5069494;28;20051;-70
2022/04/04 02:03:46;;;;;;;35.50;22.55;;;2.90;99.90;;;;;;5078412;28;20056;-71
2022/04/04 02:06:13;;;;;;;33.13;23.42;;;2.90;99.90;;;;;;5086755;28;20039;-70
2022/04/04 02:08:38;;;;;;;33.95;21.38;;;2.90;99.90;;;;;;5069469;28;20040;-70
2022/04/04 02:11:05;;;;;;;32.42;22.55;;;2.90;99.90;;;;;;5076297;28;20382;-70
2022/04/04 02:13:31;;;;;;;30.80;22.75;;;2.90;99.90;;;;;;5069224;28;20724;-71
2022/04/04 02:16:01;;;;;;;30.80;22.58;;;2.90;99.90;;;;;;5073500;28;20523;-70
2022/04/04 02:18:28;;;;;;;32.63;22.75;;;2.90;99.90;;;;;;5049967;28;20037;-71
2022/04/04 02:20:54;;;;;;;36.83;24.77;;;2.90;99.90;;;;;;5074017;28;20105;-70
2022/04/04 02:23:20;;;;;;;34.25;23.40;;;2.90;99.90;;;;;;5080866;28;20052;-71
2022/04/04 02:25:47;;;;;;;35.45;23.05;;;3.00;99.90;;;;;;5090183;28;20515;-70
2022/04/04 02:28:14;;;;;;;29.95;22.77;;;2.90;99.90;;;;;;5080370;28;20398;-71
2022/04/04 02:30:44;;;;;;;31.75;24.40;;;3.00;99.90;;;;;;5076703;28;20159;-70
2022/04/04 02:33:10;;;;;;;29.38;23.42;;;3.00;99.90;;;;;;5069522;28;20413;-71
2022/04/04 02:35:36;;;;;;;40.97;26.75;;;3.00;99.90;;;;;;5069284;28;20561;-71
2022/04/04 02:38:02;;;;;;;36.88;26.08;;;3.00;99.90;;;;;;5068812;28;20045;-71
2022/04/04 02:40:28;;;;;;;33.10;24.25;;;3.10;99.90;;;;;;5066881;28;20109;-71
2022/04/04 02:42:54;;;;;;;34.78;24.60;;;3.00;99.90;;;;;;5073811;28;20098;-71
2022/04/04 02:45:20;;;;;;;30.30;24.05;;;3.10;99.90;;;;;;5068735;28;20055;-70
2022/04/04 02:47:46;;;;;;;35.58;24.85;;;3.10;99.90;;;;;;5068893;28;20131;-71
2022/04/04 02:50:12;;;;;;;38.50;28.02;;;3.10;99.90;;;;;;5069090;28;20087;-70
2022/04/04 02:52:38;;;;;;;34.13;24.48;;;3.10;99.90;;;;;;5069120;28;20090;-70
2022/04/04 02:57:51;;;;;;;42.88;27.48;;;3.20;99.90;;;;;;5061614;28;20049;-70
2022/04/04 03:00:17;;;;;;;36.85;27.05;;;3.20;99.90;;;;;;5048581;28;20049;-70
2022/04/04 03:02:44;;;;;;;38.75;27.38;;;3.20;99.90;;;;;;5057533;28;20040;-71
2022/04/04 03:05:09;;;;;;;54.78;27.23;;;3.20;99.90;;;;;;5065926;28;20129;-70
2022/04/04 03:07:35;;;;;;;48.38;29.58;;;3.30;99.90;;;;;;5060184;28;20091;-71
2022/04/04 03:10:02;;;;;;;44.20;26.77;;;3.30;99.90;;;;;;5071094;28;20048;-71
2022/04/04 03:12:28;;;;;;;44.33;27.25;;;3.40;99.90;;;;;;5067602;28;20402;-70
2022/04/04 03:14:54;;;;;;;41.63;28.00;;;3.40;99.90;;;;;;5068011;28;20044;-71
2022/04/04 03:17:19;;;;;;;42.53;26.77;;;3.50;99.90;;;;;;5066628;28;20884;-71
2022/04/04 03:19:47;;;;;;;42.17;27.55;;;3.50;99.90;;;;;;5069059;28;20563;-72
2022/04/04 03:22:13;;;;;;;45.83;27.38;;;3.50;99.90;;;;;;5068895;28;20087;-72
2022/04/04 03:24:39;;;;;;;39.95;27.98;;;3.50;99.90;;;;;;5062983;28;20568;-70
2022/04/04 03:27:04;;;;;;;38.92;27.00;;;3.60;99.90;;;;;;5065683;28;20044;-70
2022/04/04 03:29:30;;;;;;;41.42;26.90;;;3.60;99.90;;;;;;5065187;28;20049;-71
2022/04/04 03:31:56;;;;;;;38.53;25.23;;;3.70;99.90;;;;;;5054029;28;20135;-70
2022/04/04 03:34:22;;;;;;;43.67;26.45;;;3.80;99.90;;;;;;5051269;28;20056;-70
2022/04/04 03:36:48;;;;;;;38.60;26.85;;;3.80;99.90;;;;;;5067285;28;20056;-70
2022/04/04 03:39:16;;;;;;;41.45;25.67;;;3.80;99.90;;;;;;5085944;28;20105;-69
2022/04/04 03:41:46;;;;;;;45.22;28.77;;;3.90;99.90;;;;;;5067094;28;20048;-70
2022/04/04 03:44:12;;;;;;;42.00;27.30;;;3.90;99.90;;;;;;5056271;28;20512;-70
2022/04/04 03:46:38;;;;;;;41.42;27.20;;;4.00;99.90;;;;;;5072849;28;20044;-70
2022/04/04 03:49:05;;;;;;;49.28;29.02;;;4.10;99.90;;;;;;5087352;28;20044;-70
2022/04/04 03:51:31;;;;;;;42.17;26.63;;;4.10;99.90;;;;;;5066400;28;20525;-70
2022/04/04 03:53:57;;;;;;;49.67;28.73;;;4.20;99.90;;;;;;5074706;28;20048;-71
2022/04/04 03:56:23;;;;;;;52.88;28.08;;;4.20;99.90;;;;;;5067389;28;20775;-70
2022/04/04 03:58:50;;;;;;;44.67;28.10;;;4.20;99.90;;;;;;5075889;28;20055;-70
2022/04/04 04:01:16;;;;;;;40.40;27.88;;;4.30;99.90;;;;;;5070530;28;20414;-70
2022/04/04 04:03:42;;;;;;;41.72;27.30;;;4.30;99.90;;;;;;5066950;28;20044;-71
2022/04/04 04:06:14;;;;;;;46.63;27.50;;;4.30;99.90;;;;;;5076863;28;20049;-70
2022/04/04 04:08:49;;;;;;;37.47;26.27;;;4.30;99.90;;;;;;5074147;28;20052;-70
2022/04/04 04:11:16;;;;;;;43.30;27.13;;;4.40;99.90;;;;;;5071902;28;20057;-71
2022/04/04 04:13:43;;;;;;;43.83;26.33;;;4.50;99.90;;;;;;5073319;28;20587;-70
2022/04/04 04:16:13;;;;;;;35.63;26.88;;;4.40;99.90;;;;;;5067829;28;20539;-70
2022/04/04 04:18:40;;;;;;;42.72;27.55;;;4.40;99.90;;;;;;5075732;28;20118;-69
2022/04/04 04:21:08;;;;;;;42.33;26.95;;;4.50;99.90;;;;;;5076642;28;20593;-71
2022/04/04 04:23:34;;;;;;;44.65;27.83;;;4.50;99.90;;;;;;5074337;28;20040;-70
2022/04/04 04:26:00;;;;;;;45.80;26.92;;;4.50;99.90;;;;;;5075612;28;20057;-70
2022/04/04 04:28:26;;;;;;;44.63;29.17;;;4.50;99.90;;;;;;5076014;28;20052;-71
2022/04/04 04:30:52;;;;;;;45.58;28.35;;;4.50;99.90;;;;;;5083510;28;20427;-71
2022/04/04 04:33:18;;;;;;;41.95;27.83;;;4.50;99.90;;;;;;5077971;28;20097;-71
2022/04/04 04:35:43;;;;;;;34.85;25.23;;;4.50;99.90;;;;;;5075228;28;20386;-71
2022/04/04 04:38:09;;;;;;;41.38;27.30;;;4.60;99.90;;;;;;5069849;28;20052;-71
2022/04/04 04:40:35;;;;;;;44.58;28.30;;;4.60;99.90;;;;;;5055804;28;20044;-70
2022/04/04 04:43:02;;;;;;;38.40;26.48;;;4.60;99.90;;;;;;5065310;28;20052;-70
2022/04/04 04:45:28;;;;;;;35.45;26.98;;;4.50;99.90;;;;;;5078140;28;20048;-70
2022/04/04 04:47:53;;;;;;;44.20;28.13;;;4.60;99.90;;;;;;5076660;28;20094;-70
2022/04/04 04:50:21;;;;;;;37.53;26.95;;;4.60;99.90;;;;;;5073354;28;20048;-70
2022/04/04 04:52:48;;;;;;;41.03;26.90;;;4.60;99.90;;;;;;5067238;28;20563;-70
2022/04/04 04:55:15;;;;;;;41.38;27.35;;;4.60;99.90;;;;;;5076799;28;20056;-70
2022/04/04 04:57:41;;;;;;;41.80;27.05;;;4.60;99.90;;;;;;5056032;28;20111;-68
2022/04/04 05:00:10;;;;;;;43.55;27.60;;;4.60;99.90;;;;;;5067773;28;20501;-70
2022/04/04 05:02:37;;;;;;;37.00;26.50;;;4.60;99.90;;;;;;5069519;28;20058;-70
2022/04/04 05:05:04;;;;;;;46.25;27.88;;;4.60;99.90;;;;;;5067341;28;20041;-70
2022/04/04 05:07:31;;;;;;;34.47;25.63;;;4.60;99.90;;;;;;5071028;28;20062;-70
2022/04/04 05:09:56;;;;;;;39.70;25.55;;;4.60;99.90;;;;;;5079124;28;20050;-71
2022/04/04 05:12:22;;;;;;;39.13;28.40;;;4.60;99.90;;;;;;5075610;28;20053;-70
2022/04/04 05:14:48;;;;;;;42.55;28.70;;;4.60;99.90;;;;;;5075483;28;20044;-71
2022/04/04 05:17:15;;;;;;;43.47;28.75;;;4.60;99.90;;;;;;5078626;28;20059;-70
2022/04/04 05:19:41;;;;;;;41.42;27.27;;;4.70;99.90;;;;;;5071684;28;20595;-71
2022/04/04 05:22:07;;;;;;;44.33;26.83;;;4.70;99.90;;;;;;5076798;28;20040;-70
2022/04/04 05:24:34;;;;;;;44.38;29.27;;;4.70;99.90;;;;;;5082356;28;20414;-71
2022/04/04 05:26:59;;;;;;;43.00;28.40;;;4.60;99.90;;;;;;5066431;28;20048;-71
2022/04/04 05:29:28;;;;;;;37.70;26.05;;;4.60;99.90;;;;;;5065954;28;20105;-70
2022/04/04 05:31:57;;;;;;;34.40;27.88;;;4.70;99.90;;;;;;5070968;28;20048;-70
2022/04/04 05:34:26;;;;;;;36.63;28.17;;;4.70;99.90;;;;;;5072292;28;20044;-70
2022/04/04 05:36:54;;;;;;;42.50;28.52;;;4.70;99.90;;;;;;5072902;28;20055;-71
2022/04/04 05:39:19;;;;;;;42.08;28.08;;;4.70;99.90;;;;;;5079433;28;20056;-70
2022/04/04 05:41:46;;;;;;;35.05;27.42;;;4.70;99.90;;;;;;5081565;28;20051;-70
2022/04/04 05:44:12;;;;;;;40.83;26.67;;;4.70;99.90;;;;;;5074989;28;20045;-70
2022/04/04 05:46:38;;;;;;;44.42;30.13;;;4.70;99.90;;;;;;5077975;28;20059;-71
2022/04/04 05:49:03;;;;;;;38.20;27.23;;;4.70;99.90;;;;;;5073706;28;20040;-70
2022/04/04 05:51:29;;;;;;;41.83;29.15;;;4.80;99.90;;;;;;5075832;28;20110;-70
2022/04/04 05:53:55;;;;;;;34.75;25.73;;;4.80;99.90;;;;;;5074335;28;20730;-71
2022/04/04 05:56:21;;;;;;;36.38;27.45;;;4.80;99.90;;;;;;5068480;28;20059;-71
2022/04/04 05:58:50;;;;;;;39.67;28.45;;;4.80;99.90;;;;;;5078317;28;20078;-70
2022/04/04 06:01:15;;;;;;;;;;;4.80;99.90;;;;;;5075302;28;20539;-70
2022/04/04 06:03:41;;;;;;;36.78;28.73;;;4.80;99.90;;;;;;5069056;28;19932;-71
2022/04/04 06:06:08;;;;;;;36.47;27.55;;;4.70;99.90;;;;;;5071861;28;20456;-70
2022/04/04 06:08:34;;;;;;;35.15;27.83;;;4.70;99.90;;;;;;5072448;28;20128;-70
2022/04/04 06:11:00;;;;;;;35.83;25.20;;;4.80;99.90;;;;;;5068218;28;20082;-71
2022/04/04 06:13:26;;;;;;;32.80;25.98;;;4.70;99.90;;;;;;5069669;28;20074;-71
2022/04/04 06:15:52;;;;;;;36.90;26.52;;;4.70;99.90;;;;;;5056870;28;20494;-70
2022/04/04 06:18:18;;;;;;;41.10;27.27;;;4.70;99.90;;;;;;5072445;28;20097;-70
2022/04/04 06:20:44;;;;;;;36.40;26.00;;;4.70;99.90;;;;;;5071240;28;20441;-70
2022/04/04 06:23:11;;;;;;;41.83;29.48;;;4.70;99.90;;;;;;5072259;28;20063;-69
2022/04/04 06:25:38;;;;;;;39.45;26.17;;;4.70;99.90;;;;;;5087479;28;20726;-70
2022/04/04 06:28:04;;;;;;;33.70;24.95;;;4.70;99.90;;;;;;5069355;28;20054;-70
2022/04/04 06:30:30;;;;;;;36.42;27.77;;;4.70;99.90;;;;;;5065617;28;21189;-68
2022/04/04 06:32:56;;;;;;;43.75;28.80;;;4.60;99.90;;;;;;5063547;28;20051;-70
2022/04/04 06:35:26;;;;;;;35.85;25.58;;;4.60;99.90;;;;;;5069636;28;20678;-70
2022/04/04 06:37:52;;;;;;;37.50;28.27;;;4.60;99.90;;;;;;5069558;28;20128;-71
2022/04/04 06:40:20;;;;;;;39.33;27.63;;;4.70;99.90;;;;;;5069022;28;20040;-71
2022/04/04 06:42:46;;;;;;;36.55;27.17;;;4.70;99.90;;;;;;5068179;28;20079;-71
2022/04/04 06:45:13;;;;;;;40.00;29.48;;;4.60;99.90;;;;;;5071567;28;20056;-70
2022/04/04 06:47:39;;;;;;;37.47;27.70;;;4.70;99.90;;;;;;5084035;28;20106;-70
2022/04/04 06:50:06;;;;;;;38.25;26.80;;;4.70;99.90;;;;;;5068547;28;20056;-69
2022/04/04 06:52:32;;;;;;;42.20;29.58;;;4.70;99.90;;;;;;5064296;28;20167;-70
2022/04/04 06:54:58;;;;;;;34.38;26.98;;;4.70;99.90;;;;;;5075772;28;20060;-70
2022/04/04 06:57:23;;;;;;;37.40;28.20;;;4.70;99.90;;;;;;5069277;28;20048;-71
2022/04/04 06:59:49;;;;;;;38.75;27.35;;;4.60;99.90;;;;;;5068679;28;20595;-71
2022/04/04 07:02:15;;;;;;;41.88;29.40;;;4.60;99.90;;;;;;5062544;28;20059;-70
2022/04/04 07:04:41;;;;;;;40.65;28.67;;;4.60;99.90;;;;;;5067806;28;20131;-70
2022/04/04 07:07:08;;;;;;;38.35;28.95;;;4.60;99.90;;;;;;5058236;28;20158;-72
2022/04/04 07:09:34;;;;;;;44.50;29.10;;;4.60;99.90;;;;;;5060293;28;20402;-71
2022/04/04 07:11:59;;;;;;;45.55;30.13;;;4.60;99.90;;;;;;5053463;28;20040;-71
2022/04/04 07:14:25;;;;;;;36.92;27.73;;;4.60;99.90;;;;;;5067970;28;20048;-71
2022/04/04 07:16:53;;;;;;;39.72;29.38;;;4.50;99.90;;;;;;5062001;28;20178;-70
2022/04/04 07:19:22;;;;;;;40.65;28.98;;;4.60;99.90;;;;;;5061257;28;20063;-70
2022/04/04 07:21:52;;;;;;;43.17;27.58;;;4.60;99.90;;;;;;5050162;28;20138;-70
2022/04/04 07:24:18;;;;;;;34.60;28.15;;;4.60;99.90;;;;;;5069273;28;20531;-70
2022/04/04 07:26:44;;;;;;;39.03;29.42;;;4.60;99.90;;;;;;5065605;28;20179;-69
2022/04/04 07:29:09;;;;;;;39.97;30.10;;;4.60;99.90;;;;;;5061986;28;20127;-71
2022/04/04 07:31:36;;;;;;;44.35;29.45;;;4.60;99.90;;;;;;5067092;28;20688;-70
2022/04/04 07:34:03;;;;;;;46.65;33.45;;;4.60;99.90;;;;;;5076491;28;20044;-71
2022/04/04 07:36:29;;;;;;;42.13;33.20;;;4.60;99.90;;;;;;5063050;28;20524;-69
2022/04/04 07:38:55;;;;;;;39.85;30.05;;;4.60;99.90;;;;;;5067780;28;20048;-68
2022/04/04 07:41:21;;;;;;;38.80;31.80;;;4.70;99.90;;;;;;5068952;28;20052;-69
2022/04/04 07:43:47;;;;;;;42.40;31.13;;;4.70;99.90;;;;;;5069151;28;20051;-69
2022/04/04 07:46:13;;;;;;;43.70;32.08;;;4.70;99.90;;;;;;5072343;28;20501;-70
2022/04/04 07:48:41;;;;;;;44.80;31.70;;;4.70;99.90;;;;;;5073788;28;20051;-70
2022/04/04 07:51:07;;;;;;;51.17;31.13;;;4.70;99.90;;;;;;5065463;28;20409;-70
2022/04/04 07:53:34;;;;;;;47.20;32.88;;;4.70;99.90;;;;;;5067605;28;20056;-69
2022/04/04 07:56:00;;;;;;;38.90;32.38;;;4.80;99.90;;;;;;5066478;28;20056;-69
2022/04/04 07:58:26;;;;;;;49.67;30.63;;;4.80;99.90;;;;;;5071037;28;20041;-69
2022/04/04 08:00:52;;;;;;;50.45;33.13;;;4.80;99.90;;;;;;5072840;28;20037;-69
2022/04/04 08:03:19;;;;;;;50.38;36.17;;;4.80;99.90;;;;;;5070794;28;20036;-70
2022/04/04 08:05:45;;;;;;;49.08;36.15;;;4.80;99.90;;;;;;5066692;28;20059;-70
2022/04/04 08:08:11;;;;;;;50.30;37.75;;;4.80;99.90;;;;;;5067532;28;20567;-70
2022/04/04 08:10:37;;;;;;;48.95;35.38;;;4.80;99.90;;;;;;5072551;28;20048;-69
2022/04/04 08:13:02;;;;;;;52.03;36.72;;;4.80;99.90;;;;;;5075100;28;20576;-69
2022/04/04 08:15:28;;;;;;;52.10;36.63;;;4.80;99.90;;;;;;5067551;28;20032;-70
2022/04/04 08:17:54;;;;;;;51.10;38.10;;;4.80;99.90;;;;;;5063243;28;20044;-70
2022/04/04 08:20:21;;;;;;;50.47;37.85;;;4.80;99.90;;;;;;5070834;28;20407;-69
2022/04/04 08:22:47;;;;;;;46.70;37.35;;;4.80;99.90;;;;;;5069313;28;20045;-70
2022/04/04 08:25:14;;;;;;;48.10;37.58;;;4.80;99.90;;;;;;5070151;28;20119;-70
2022/04/04 08:27:41;;;;;;;50.92;38.83;;;4.80;99.90;;;;;;5078077;28;20439;-72
2022/04/04 08:30:10;;;;;;;52.15;37.30;;;4.90;99.90;;;;;;5072506;28;20051;-72
2022/04/04 08:32:36;;;;;;;56.42;36.10;;;4.90;99.90;;;;;;5075602;28;20039;-70
2022/04/04 08:35:08;;;;;;;58.40;37.47;;;4.90;99.90;;;;;;5071074;28;20557;-70
2022/04/04 08:37:35;;;;;;;47.28;35.40;;;4.90;99.90;;;;;;5065972;28;20516;-71
2022/04/04 08:40:03;;;;;;;50.13;36.95;;;5.00;99.90;;;;;;5064263;28;20554;-72
2022/04/04 08:42:29;;;;;;;48.83;36.63;;;5.00;99.90;;;;;;5083058;28;20497;-71
2022/04/04 08:44:59;;;;;;;51.70;35.55;;;5.10;99.90;;;;;;5065818;28;20516;-71
2022/04/04 08:47:29;;;;;;;40.75;29.92;;;5.10;99.90;;;;;;5058023;28;20555;-71
2022/04/04 08:49:56;;;;;;;41.25;32.45;;;5.10;99.90;;;;;;5057729;28;20044;-71
2022/04/04 08:52:23;;;;;;;42.67;32.13;;;5.10;99.90;;;;;;5076464;28;20401;-71
2022/04/04 08:54:49;;;;;;;41.92;31.52;;;5.20;99.90;;;;;;5066096;28;20150;-70
2022/04/04 08:57:16;;;;;;;44.95;31.67;;;5.20;99.90;;;;;;5076573;28;20590;-71
2022/04/04 08:59:43;;;;;;;34.00;29.83;;;5.20;99.90;;;;;;5081534;28;20058;-72
2022/04/04 09:02:09;;;;;;;39.58;28.27;;;5.20;99.90;;;;;;5077318;28;20109;-71
2022/04/04 09:04:36;;;;;;;32.33;24.77;;;5.30;99.90;;;;;;5075652;28;20134;-72
2022/04/04 09:07:07;;;;;;;31.38;25.48;;;5.30;99.90;;;;;;5076299;28;20095;-71
2022/04/04 09:09:40;;;;;;;30.65;23.80;;;5.30;99.90;;;;;;5079079;28;20048;-72
2022/04/04 09:12:14;;;;;;;31.85;23.73;;;5.30;99.90;;;;;;5068718;28;20489;-70
2022/04/04 09:14:51;;;;;;;32.13;22.73;;;5.30;99.90;;;;;;5066973;28;20053;-72
2022/04/04 09:17:45;;;;;;;26.00;21.08;;;5.40;99.90;;;;;;5068549;28;20516;-71
2022/04/04 09:20:11;;;;;;;28.85;20.33;;;5.40;99.90;;;;;;5071198;28;20091;-71
2022/04/04 09:22:51;;;;;;;24.23;17.58;;;5.40;99.90;;;;;;5069510;28;20041;-73
2022/04/04 09:25:30;;;;;;;26.08;18.00;;;5.40;99.90;;;;;;5065749;28;20410;-73
2022/04/04 09:28:16;;;;;;;21.60;15.13;;;5.40;99.90;;;;;;5056647;28;20055;-72
2022/04/04 09:30:43;;;;;;;17.23;13.55;;;5.40;99.90;;;;;;5067653;28;20060;-74
2022/04/04 09:33:13;;;;;;;23.65;14.23;;;5.40;99.90;;;;;;5069252;28;20071;-72
2022/04/04 09:35:46;;;;;;;19.15;11.65;;;5.40;99.90;;;;;;5052954;28;20068;-74
2022/04/04 09:38:14;;;;;;;15.52;11.93;;;5.40;99.90;;;;;;5066010;28;20049;-75
2022/04/04 09:40:40;;;;;;;14.68;11.32;;;5.50;99.90;;;;;;5069425;28;20051;-75
2022/04/04 09:43:06;;;;;;;11.07;9.82;;;5.50;99.90;;;;;;5064471;28;20052;-76
2022/04/04 09:45:31;;;;;;;13.75;10.82;;;5.50;99.90;;;;;;5070779;28;20382;-77
2022/04/04 09:48:09;;;;;;;16.70;10.52;;;5.50;99.90;;;;;;5073353;28;20047;-74
2022/04/04 09:50:41;;;;;;;16.55;9.75;;;5.60;99.90;;;;;;5055338;28;20044;-74
2022/04/04 09:53:30;;;;;;;15.20;10.18;;;5.60;99.90;;;;;;5076984;28;20063;-76
2022/04/04 09:55:57;;;;;;;12.27;10.25;;;5.60;99.90;;;;;;5065133;28;20127;-73
2022/04/04 09:58:25;;;;;;;13.65;10.57;;;5.60;99.90;;;;;;5068489;28;20075;-74
2022/04/04 10:00:51;;;;;;;14.38;9.25;;;5.60;99.90;;;;;;5070339;28;20048;-72
2022/04/04 10:03:18;;;;;;;11.30;8.40;;;5.60;99.90;;;;;;5072652;28;20087;-73
2022/04/04 10:05:49;;;;;;;12.65;9.35;;;5.60;99.90;;;;;;5075380;28;20044;-73
2022/04/04 10:08:17;;;;;;;15.00;10.52;;;5.70;99.90;;;;;;5069697;28;20044;-75
2022/04/04 10:10:46;;;;;;;12.23;10.20;;;5.70;99.90;;;;;;5070071;28;20048;-73
2022/04/04 10:13:17;;;;;;;14.70;11.00;;;5.70;99.90;;;;;;5072163;28;20067;-77
2022/04/04 10:15:43;;;;;;;11.05;8.98;;;5.70;99.90;;;;;;5079442;28;20059;-75
2022/04/04 10:18:09;;;;;;;16.77;11.20;;;5.80;99.90;;;;;;5073709;28;20058;-73
2022/04/04 10:20:36;;;;;;;11.25;9.57;;;5.80;99.90;;;;;;5078548;28;20048;-75
2022/04/04 10:23:04;;;;;;;14.43;11.68;;;5.80;99.90;;;;;;5078432;28;20531;-78
2022/04/04 10:25:32;;;;;;;10.38;9.38;;;5.80;99.90;;;;;;5074347;28;20106;-73
2022/04/04 10:27:59;;;;;;;13.18;10.07;;;5.80;99.90;;;;;;5072820;28;20048;-75
2022/04/04 10:30:31;;;;;;;10.80;9.68;;;5.80;99.90;;;;;;5073768;28;20081;-76
2022/04/04 10:32:57;;;;;;;25.90;9.32;;;5.80;99.90;;;;;;5078060;28;20047;-75
2022/04/04 10:35:25;;;;;;;11.20;9.60;;;5.80;99.90;;;;;;5077805;28;20052;-75
2022/04/04 10:37:56;;;;;;;;;;;5.80;99.90;;;;;;5079384;28;20143;-73
2022/04/04 10:40:27;;;;;;;11.45;9.88;;;5.80;99.90;;;;;;5082711;28;20399;-76
2022/04/04 10:43:12;;;;;;;10.40;9.30;;;5.90;99.90;;;;;;5072275;28;20857;-75
2022/04/04 10:46:02;;;;;;;11.93;9.60;;;5.90;99.90;;;;;;5067013;28;20052;-75
2022/04/04 10:48:37;;;;;;;18.38;10.90;;;5.90;99.90;;;;;;5045619;28;20040;-75
2022/04/04 10:51:10;;;;;;;12.55;10.40;;;5.90;99.90;;;;;;5076729;28;20048;-76
2022/04/04 10:53:43;;;;;;;15.48;10.93;;;5.90;99.90;;;;;;5080023;28;20708;-76
2022/04/04 10:56:15;;;;;;;10.80;9.60;;;5.90;99.90;;;;;;5074487;28;20080;-75
2022/04/04 10:58:40;;;;;;;10.20;9.18;;;6.00;99.90;;;;;;5068111;28;20082;-75
2022/04/04 11:01:16;;;;;;;11.98;9.90;;;6.00;99.90;;;;;;5068293;28;20045;-76
2022/04/04 11:04:02;;;;;;;11.25;9.68;;;6.00;99.90;;;;;;5061571;28;20036;-75
2022/04/04 11:09:46;;;;;;;13.20;9.57;;;6.10;99.90;;;;;;5071792;28;20053;-74
2022/04/04 11:12:13;;;;;;;11.88;9.60;;;6.10;99.90;;;;;;5077264;28;20048;-74
2022/04/04 11:14:41;;;;;;;10.93;9.82;;;6.10;99.90;;;;;;5074553;28;20060;-74
2022/04/04 11:17:23;;;;;;;11.15;9.05;;;6.20;99.90;;;;;;5078251;28;20052;-73
2022/04/04 11:20:02;;;;;;;10.45;9.38;;;6.20;99.90;;;;;;5075430;28;20111;-70
2022/04/04 11:22:31;;;;;;;11.57;9.25;;;6.20;99.90;;;;;;5070368;28;20041;-71
2022/04/04 11:25:03;;;;;;;11.60;9.93;;;6.30;99.90;;;;;;5058193;28;20106;-71
2022/04/04 11:27:33;;;;;;;10.18;9.00;;;6.30;99.90;;;;;;5069711;28;20413;-74
2022/04/04 11:30:10;;;;;;;11.70;8.50;;;6.30;99.90;;;;;;5077105;28;20075;-74
2022/04/04 11:32:40;;;;;;;9.98;8.57;;;6.40;99.90;;;;;;5077246;28;20052;-74
2022/04/04 11:35:10;;;;;;;11.70;8.55;;;6.40;99.90;;;;;;5067780;28;20101;-75
2022/04/04 11:37:48;;;;;;;9.45;8.38;;;6.40;99.90;;;;;;5048784;28;20136;-74
2022/04/04 11:40:18;;;;;;;8.93;8.05;;;6.50;99.90;;;;;;5067058;28;20102;-74
2022/04/04 11:42:50;;;;;;;8.80;7.95;;;6.50;99.90;;;;;;5063796;28;20487;-75
2022/04/04 11:45:32;;;;;;;12.93;7.78;;;6.60;99.90;;;;;;5061379;28;20053;-75
2022/04/04 11:48:05;;;;;;;7.95;6.65;;;6.60;99.90;;;;;;5058980;28;20049;-75
2022/04/04 11:50:34;;;;;;;14.52;7.05;;;6.60;99.90;;;;;;5057874;28;20416;-76
2022/04/04 11:53:03;;;;;;;7.07;6.35;;;6.70;99.90;;;;;;5062273;28;20048;-74
2022/04/04 11:55:31;;;;;;;7.40;5.82;;;6.70;99.90;;;;;;5058276;28;23317;-76
2022/04/04 11:58:00;;;;;;;6.53;5.68;;;6.70;99.90;;;;;;5068478;28;20444;-76
2022/04/04 12:00:26;;;;;;;;;;;6.80;99.90;;;;;;5064277;28;20055;-75
2022/04/04 12:02:51;;;;;;;5.63;4.93;;;6.80;99.90;;;;;;5068834;28;20011;-72
2022/04/04 12:05:22;;;;;;;7.05;5.60;;;6.90;99.90;;;;;;5066136;28;20040;-76
2022/04/04 12:07:49;;;;;;;5.28;4.78;;;6.90;99.90;;;;;;5068841;28;20048;-76
2022/04/04 12:10:31;;;;;;;6.00;5.05;;;6.90;99.90;;;;;;5065130;28;20053;-74
2022/04/04 12:13:21;;;;;;;7.22;5.65;;;7.00;99.90;;;;;;5068742;28;20048;-74
2022/04/04 12:15:56;;;;;;;6.22;5.00;;;7.00;99.90;;;;;;5064590;28;20302;-75
2022/04/04 12:18:30;;;;;;;5.95;4.13;;;7.00;99.90;;;;;;5075525;28;20056;-74
2022/04/04 12:21:02;;;;;;;5.18;4.68;;;7.00;99.90;;;;;;5072632;28;20056;-73
2022/04/04 12:26:16;;;;;;;4.68;3.72;;;7.10;99.90;;;;;;5074931;28;20060;-74
2022/04/04 12:28:53;;;;;;;5.07;4.32;;;7.10;99.90;;;;;;5065440;28;20048;-72
2022/04/04 12:31:23;;;;;;;4.00;3.22;;;7.10;99.90;;;;;;5070340;28;20452;-75
2022/04/04 12:34:12;;;;;;;5.00;4.28;;;7.10;99.90;;;;;;5067635;28;20133;-74
2022/04/04 12:36:39;;;;;;;4.95;4.35;;;7.10;99.90;;;;;;5070498;28;20118;-75
2022/04/04 12:39:16;;;;;;;5.43;4.13;;;7.10;99.90;;;;;;5069220;28;20084;-74
2022/04/04 12:41:44;;;;;;;5.40;4.88;;;7.10;99.90;;;;;;5076590;28;20055;-75
2022/04/04 12:44:10;;;;;;;4.78;4.05;;;7.10;99.90;;;;;;5078655;28;20052;-75
2022/04/04 12:46:36;;;;;;;7.07;5.28;;;7.20;99.90;;;;;;5072312;28;20052;-74
2022/04/04 12:49:17;;;;;;;4.53;4.13;;;7.20;99.90;;;;;;5075315;28;20620;-75
2022/04/04 12:51:58;;;;;;;7.25;4.25;;;7.20;99.90;;;;;;5067443;28;20048;-75
2022/04/04 12:54:34;;;;;;;4.30;3.90;;;7.20;99.90;;;;;;5078735;28;20056;-74